Fort Mill, South Carolina
Current Conditions -  °F | °C
As of 5:54 AM on Wednesday 22 Oct 2014 (Local Time) from KUZA Reporting Station
Clear Clear  
Wind Chill: 43°   Ceiling: Unl
Heat Index: 45°   Visibility: 10mi
Dew Point: 38°   Wind: 5mph
Humidity: 76%   Direction: 320°NW
Pressure: 30.01"   Gusts: NA
Location:  35.01°N, 80.94°W
Report Text: KUZA 220954Z AUTO 32004KT 10SM CLR 07/03 A3001 RMK AO2 SLP159 T00720033
Loading
Personal Weather Stations






























Interactive Weather Map New forecast layout! Learn more

10-Day Weather Forecast

Advertisements
Track Severe Weather on mobile